Mendola Village, Kentucky
Current Conditions -  °F | °C
As of 9:15 AM on Sunday 21 Dec 2014 (Local Time) from KSJS Reporting Station
Clear Clear  
Wind Chill: 29°   Ceiling: Unl
Heat Index: 29°   Visibility: 10mi
Dew Point: 27°   Wind: 3mph
Humidity: 94%   Direction: 60°ENE
Pressure: 30.29"   Gusts: NA
Location:  37.7639°N, 82.7875°W
Report Text: KSJS 211415Z AUTO 06003KT 10SM CLR M02/M03 A3029 RMK AO2 T10181027
Loading
Personal Weather Stations






























Interactive Weather Map New forecast layout! Learn more

10-Day Weather Forecast

Advertisements
Track Severe Weather on mobile